createdAt,value
2018-01-14T00:00:03.920Z,3.40
2018-01-14T00:02:31.402Z,3.40
2018-01-14T00:04:58.884Z,3.40
2018-01-14T00:07:26.336Z,3.30
2018-01-14T00:09:53.820Z,3.30
2018-01-14T00:12:21.308Z,3.30
2018-01-14T00:14:48.802Z,3.30
2018-01-14T00:17:17.028Z,3.30
2018-01-14T00:19:45.690Z,3.30
2018-01-14T00:22:13.568Z,3.30
2018-01-14T00:24:41.047Z,3.30
2018-01-14T00:27:11.615Z,3.20
2018-01-14T00:29:39.834Z,3.20
2018-01-14T00:32:07.268Z,3.20
2018-01-14T00:34:34.715Z,3.20
2018-01-14T00:37:02.276Z,3.20
2018-01-14T00:39:29.726Z,3.20
2018-01-14T00:41:57.932Z,3.20
2018-01-14T00:44:25.776Z,3.10
2018-01-14T00:46:53.967Z,3.20
2018-01-14T00:49:21.825Z,3.10
2018-01-14T00:51:50.089Z,3.10
2018-01-14T00:54:18.748Z,3.10
2018-01-14T00:56:46.220Z,3.10
2018-01-14T00:59:15.082Z,3.10
2018-01-14T01:01:43.280Z,3.10
2018-01-14T01:04:10.713Z,3.10
2018-01-14T01:06:38.155Z,3.10
2018-01-14T01:09:05.581Z,3.10
2018-01-14T01:11:33.017Z,3.10
2018-01-14T01:14:01.663Z,3.00
2018-01-14T01:16:29.109Z,3.00
2018-01-14T01:18:56.547Z,3.00
2018-01-14T01:21:24.005Z,3.00
2018-01-14T01:23:51.443Z,3.00
2018-01-14T01:26:18.875Z,3.00
2018-01-14T01:28:46.316Z,3.00
2018-01-14T01:31:13.759Z,2.90
2018-01-14T01:33:41.325Z,3.00
2018-01-14T01:36:08.768Z,2.90
2018-01-14T01:38:36.836Z,2.90
2018-01-14T01:41:04.330Z,2.90
2018-01-14T01:43:31.774Z,2.90
2018-01-14T01:45:59.249Z,2.90
2018-01-14T01:48:26.729Z,2.90
2018-01-14T01:50:54.950Z,2.80
2018-01-14T01:53:22.577Z,2.80
2018-01-14T01:55:50.096Z,2.80
2018-01-14T01:58:17.643Z,2.80
2018-01-14T02:00:50.501Z,2.80
2018-01-14T02:03:17.945Z,2.80
2018-01-14T02:05:45.813Z,2.80
2018-01-14T02:08:13.300Z,2.80
2018-01-14T02:10:40.794Z,2.80
2018-01-14T02:13:09.848Z,2.70
2018-01-14T02:15:37.287Z,2.70
2018-01-14T02:18:05.783Z,2.70
2018-01-14T02:20:33.289Z,2.70
2018-01-14T02:23:01.520Z,2.70
2018-01-14T02:25:29.000Z,2.60
2018-01-14T02:27:56.464Z,2.60
2018-01-14T02:30:23.922Z,2.70
2018-01-14T02:32:51.360Z,2.60
2018-01-14T02:35:18.813Z,2.60
2018-01-14T02:37:46.259Z,2.60
2018-01-14T02:40:14.159Z,2.60
2018-01-14T02:42:41.805Z,2.50
2018-01-14T02:45:10.011Z,2.50
2018-01-14T02:47:38.097Z,2.50
2018-01-14T02:50:05.536Z,2.50
2018-01-14T02:52:33.747Z,2.50
2018-01-14T02:55:01.204Z,2.50
2018-01-14T02:57:29.194Z,2.40
2018-01-14T02:59:56.641Z,2.40
2018-01-14T03:02:24.098Z,2.40
2018-01-14T03:04:51.538Z,2.40
2018-01-14T03:07:19.022Z,2.40
2018-01-14T03:09:46.445Z,2.30
2018-01-14T03:12:13.899Z,2.30
2018-01-14T03:14:41.333Z,2.30
2018-01-14T03:17:09.538Z,2.30
2018-01-14T03:19:38.046Z,2.30
2018-01-14T03:22:05.500Z,2.30
2018-01-14T03:24:32.958Z,2.20
2018-01-14T03:27:00.397Z,2.20
2018-01-14T03:29:27.832Z,2.20
2018-01-14T03:32:01.876Z,2.20
2018-01-14T03:34:29.328Z,2.20
2018-01-14T03:36:56.768Z,2.20
2018-01-14T03:39:24.588Z,2.20
2018-01-14T03:41:52.040Z,2.10
2018-01-14T03:44:19.491Z,2.10
2018-01-14T03:46:46.932Z,2.10
2018-01-14T03:49:14.483Z,2.10
2018-01-14T03:51:42.344Z,2.10
2018-01-14T03:54:09.849Z,2.00
2018-01-14T03:56:39.497Z,2.00
2018-01-14T03:59:06.936Z,2.00
2018-01-14T04:01:34.399Z,2.00
2018-01-14T04:04:02.109Z,2.00
2018-01-14T04:06:29.549Z,2.00
2018-01-14T04:08:57.414Z,2.00
2018-01-14T04:11:24.855Z,2.00
2018-01-14T04:13:53.049Z,1.90
2018-01-14T04:16:20.513Z,1.90
2018-01-14T04:18:48.884Z,1.90
2018-01-14T04:21:16.354Z,1.90
2018-01-14T04:23:43.796Z,1.90
2018-01-14T04:26:11.652Z,1.90
2018-01-14T04:28:39.088Z,1.90
2018-01-14T04:31:07.314Z,1.80
2018-01-14T04:33:35.247Z,1.80
2018-01-14T04:36:02.713Z,1.80
2018-01-14T04:38:30.171Z,1.80
2018-01-14T04:40:57.604Z,1.80
2018-01-14T04:43:25.465Z,1.80
2018-01-14T04:45:53.679Z,1.70
2018-01-14T04:48:21.134Z,1.70
2018-01-14T04:50:48.587Z,1.70
2018-01-14T04:53:16.528Z,1.70
2018-01-14T04:55:45.010Z,1.70
2018-01-14T04:58:13.218Z,1.70
2018-01-14T05:00:40.651Z,1.70
2018-01-14T05:03:08.110Z,1.70
2018-01-14T05:05:35.583Z,1.70
2018-01-14T05:08:03.029Z,1.70
2018-01-14T05:10:31.061Z,1.70
2018-01-14T05:12:59.219Z,1.70
2018-01-14T05:15:27.465Z,1.70
2018-01-14T05:17:54.939Z,1.70
2018-01-14T05:20:22.397Z,1.60
2018-01-14T05:22:49.931Z,1.60
2018-01-14T05:25:17.422Z,1.60
2018-01-14T05:27:44.919Z,1.60
2018-01-14T05:30:12.393Z,1.60
2018-01-14T05:32:39.871Z,1.60
2018-01-14T05:35:08.632Z,1.60
2018-01-14T05:37:36.844Z,1.60
2018-01-14T05:40:04.290Z,1.60
2018-01-14T05:42:32.533Z,1.60
2018-01-14T05:45:00.919Z,1.60
2018-01-14T05:47:29.121Z,1.60
2018-01-14T05:49:58.098Z,1.60
2018-01-14T05:52:26.421Z,1.60
2018-01-14T05:54:54.334Z,1.60
2018-01-14T05:57:21.919Z,1.60
2018-01-14T05:59:49.545Z,1.60
2018-01-14T06:02:17.773Z,1.60
2018-01-14T06:04:45.277Z,1.60
2018-01-14T06:07:14.622Z,1.60
2018-01-14T06:09:42.109Z,1.60
2018-01-14T06:12:09.914Z,1.60
2018-01-14T06:14:38.165Z,1.50
2018-01-14T06:17:05.650Z,1.50
2018-01-14T06:19:33.512Z,1.60
2018-01-14T06:22:00.998Z,1.50
2018-01-14T06:24:29.314Z,1.50
2018-01-14T06:26:56.904Z,1.50
2018-01-14T06:29:24.746Z,1.50
2018-01-14T06:31:56.194Z,1.50
2018-01-14T06:34:27.077Z,1.50
2018-01-14T06:36:54.637Z,1.50
2018-01-14T06:39:22.171Z,1.50
2018-01-14T06:41:50.537Z,1.50
2018-01-14T06:44:17.976Z,1.50
2018-01-14T06:46:45.471Z,1.50
2018-01-14T06:49:13.827Z,1.50
2018-01-14T06:51:41.370Z,1.50
2018-01-14T06:54:11.084Z,1.50
2018-01-14T06:56:38.544Z,1.50
2018-01-14T06:59:06.031Z,1.60
2018-01-14T07:01:34.325Z,1.50
2018-01-14T07:04:02.301Z,1.50
2018-01-14T07:06:30.416Z,1.50
2018-01-14T07:08:57.891Z,1.50
2018-01-14T07:11:25.660Z,1.50
2018-01-14T07:13:54.443Z,1.50
2018-01-14T07:18:54.606Z,1.50
2018-01-14T07:21:22.056Z,1.50
2018-01-14T07:23:50.283Z,1.50
2018-01-14T07:26:18.216Z,1.50
2018-01-14T07:28:48.622Z,1.50
2018-01-14T07:31:16.982Z,1.50
2018-01-14T07:33:45.238Z,1.50
2018-01-14T07:36:12.785Z,1.50
2018-01-14T07:38:40.332Z,1.50
2018-01-14T07:41:08.573Z,1.60
2018-01-14T07:43:36.835Z,1.60
2018-01-14T07:46:04.204Z,1.50
2018-01-14T07:48:32.326Z,1.60
2018-01-14T07:50:59.765Z,1.60
2018-01-14T07:53:27.198Z,1.60
2018-01-14T07:55:54.754Z,1.60
2018-01-14T07:58:28.676Z,1.60
2018-01-14T08:00:56.106Z,1.60
2018-01-14T08:03:23.565Z,1.60
2018-01-14T08:06:05.997Z,1.70
2018-01-14T08:08:33.481Z,1.60
2018-01-14T08:11:03.533Z,1.70
2018-01-14T08:13:30.999Z,1.70
2018-01-14T08:15:58.432Z,1.70
2018-01-14T08:18:26.435Z,1.70
2018-01-14T08:20:54.640Z,1.70
2018-01-14T08:23:22.076Z,1.70
2018-01-14T08:25:49.848Z,1.80
2018-01-14T08:28:17.329Z,1.80
2018-01-14T08:30:45.632Z,1.80
2018-01-14T08:33:13.784Z,1.80
2018-01-14T08:35:41.240Z,1.80
2018-01-14T08:38:08.695Z,1.80
2018-01-14T08:40:36.124Z,1.90
2018-01-14T08:43:04.141Z,1.90
2018-01-14T08:45:31.572Z,1.90
2018-01-14T08:47:59.040Z,2.00
2018-01-14T08:50:36.457Z,2.00
2018-01-14T08:53:05.305Z,2.00
2018-01-14T08:55:33.367Z,2.00
2018-01-14T08:58:00.981Z,2.10
2018-01-14T09:00:28.421Z,2.10
2018-01-14T09:02:56.519Z,2.10
2018-01-14T09:05:23.968Z,2.10
2018-01-14T09:07:52.927Z,2.20
2018-01-14T09:10:20.492Z,2.20
2018-01-14T09:12:47.939Z,2.20
2018-01-14T09:15:15.399Z,2.20
2018-01-14T09:17:42.854Z,2.30
2018-01-14T09:20:10.684Z,2.30
2018-01-14T09:22:38.946Z,2.30
2018-01-14T09:25:06.396Z,2.30
2018-01-14T09:27:33.861Z,2.40
2018-01-14T09:30:01.770Z,2.40
2018-01-14T09:32:29.260Z,2.40
2018-01-14T09:34:57.829Z,2.40
2018-01-14T09:37:25.280Z,2.50
2018-01-14T09:39:52.772Z,2.50
2018-01-14T09:51:23.246Z,2.50
2018-01-14T09:53:52.020Z,2.60
2018-01-14T09:56:19.497Z,2.60
2018-01-14T09:58:46.946Z,2.60
2018-01-14T10:01:15.361Z,2.60
2018-01-14T10:03:43.178Z,2.70
2018-01-14T10:06:11.470Z,2.70
2018-01-14T10:08:39.024Z,2.70
2018-01-14T10:11:06.486Z,2.70
2018-01-14T10:13:33.935Z,2.80
2018-01-14T10:16:01.404Z,2.90
2018-01-14T10:18:28.913Z,2.90
2018-01-14T10:20:57.436Z,3.00
2018-01-14T10:23:25.670Z,3.00
2018-01-14T10:25:53.687Z,3.00
2018-01-14T10:28:21.101Z,3.10
2018-01-14T10:30:51.756Z,3.10
2018-01-14T10:33:19.236Z,3.00
2018-01-14T10:35:53.404Z,3.10
2018-01-14T10:38:20.910Z,3.20
2018-01-14T10:40:48.650Z,3.20
2018-01-14T10:43:18.762Z,3.30
2018-01-14T10:45:46.593Z,3.30
2018-01-14T10:48:14.735Z,3.40
2018-01-14T10:50:42.225Z,3.40
2018-01-14T10:53:10.470Z,3.50
2018-01-14T10:55:37.932Z,3.40
2018-01-14T10:58:05.793Z,3.50
2018-01-14T11:00:38.839Z,3.70
2018-01-14T11:03:06.764Z,3.90
2018-01-14T11:05:34.231Z,3.90
2018-01-14T11:08:01.690Z,4.00
2018-01-14T11:10:29.134Z,4.10
2018-01-14T11:12:56.954Z,4.10
2018-01-14T11:15:24.460Z,4.20
2018-01-14T11:17:52.026Z,4.10
2018-01-14T11:20:23.902Z,4.20
2018-01-14T11:22:52.110Z,4.10
2018-01-14T11:25:20.121Z,4.10
2018-01-14T11:27:48.177Z,4.20
2018-01-14T11:30:15.736Z,4.30
2018-01-14T11:32:43.759Z,4.30
2018-01-14T11:35:11.965Z,4.30
2018-01-14T11:37:39.415Z,4.30
2018-01-14T11:40:07.315Z,4.30
2018-01-14T11:42:34.762Z,4.30
2018-01-14T11:45:03.041Z,4.50
2018-01-14T11:47:30.510Z,4.30
2018-01-14T11:49:57.942Z,4.10
2018-01-14T11:52:25.481Z,4.00
2018-01-14T11:54:52.939Z,4.00
2018-01-14T11:57:20.384Z,4.20
2018-01-14T11:59:47.916Z,4.40
2018-01-14T12:02:15.374Z,4.50
2018-01-14T12:04:42.861Z,4.90
2018-01-14T12:07:10.850Z,5.60
2018-01-14T12:09:38.328Z,5.60
2018-01-14T12:12:06.321Z,5.50
2018-01-14T12:14:33.760Z,5.20
2018-01-14T12:17:07.191Z,5.10
2018-01-14T12:19:35.408Z,4.90
2018-01-14T12:22:02.841Z,4.80
2018-01-14T12:24:30.280Z,5.50
2018-01-14T12:26:59.137Z,6.60
2018-01-14T12:29:26.771Z,6.60
2018-01-14T12:31:54.270Z,6.50
2018-01-14T12:34:37.793Z,6.10
2018-01-14T12:37:15.590Z,6.20
2018-01-14T12:39:43.648Z,6.70
2018-01-14T12:42:15.253Z,6.80
2018-01-14T12:44:43.482Z,7.00
2018-01-14T12:47:14.835Z,7.00
2018-01-14T12:49:42.354Z,6.80
2018-01-14T12:52:09.782Z,6.60
2018-01-14T12:54:37.273Z,6.70
2018-01-14T12:57:04.797Z,6.60
2018-01-14T12:59:33.028Z,6.80
2018-01-14T13:02:00.467Z,6.80
2018-01-14T13:04:27.914Z,6.20
2018-01-14T13:06:55.396Z,5.80
2018-01-14T13:09:23.420Z,5.40
2018-01-14T13:11:51.629Z,5.00
2018-01-14T13:14:19.077Z,5.00
2018-01-14T13:16:46.509Z,5.00
2018-01-14T13:19:14.712Z,5.80
2018-01-14T13:21:42.700Z,5.80
2018-01-14T13:24:10.135Z,5.60
2018-01-14T13:26:38.219Z,5.30
2018-01-14T13:29:05.984Z,5.10
2018-01-14T13:31:33.436Z,5.10
2018-01-14T13:34:00.869Z,5.10
2018-01-14T13:36:29.342Z,5.20
2018-01-14T13:38:58.683Z,5.20
2018-01-14T13:41:26.441Z,5.10
2018-01-14T13:43:53.861Z,5.00
2018-01-14T13:46:22.439Z,4.60
2018-01-14T13:48:49.852Z,4.60
2018-01-14T13:51:17.283Z,4.50
2018-01-14T13:53:44.739Z,4.40
2018-01-14T13:56:16.779Z,4.40
2018-01-14T13:58:45.016Z,4.30
2018-01-14T14:01:13.301Z,4.30
2018-01-14T14:03:41.353Z,4.40
2018-01-14T14:06:08.843Z,4.30
2018-01-14T14:08:36.561Z,4.30
2018-01-14T14:11:04.772Z,4.30
2018-01-14T14:13:36.985Z,4.30
2018-01-14T14:16:05.882Z,4.30
2018-01-14T14:18:33.381Z,4.40
2018-01-14T14:21:00.903Z,4.40
2018-01-14T14:23:28.833Z,4.40
2018-01-14T14:25:56.279Z,4.40
2018-01-14T14:28:23.730Z,4.40
2018-01-14T14:30:51.734Z,4.40
2018-01-14T14:33:19.957Z,4.40
2018-01-14T14:35:47.414Z,4.40
2018-01-14T14:38:14.852Z,4.30
2018-01-14T14:40:42.321Z,4.30
2018-01-14T14:43:10.668Z,4.20
2018-01-14T14:45:39.317Z,4.20
2018-01-14T14:48:06.794Z,4.20
2018-01-14T14:50:34.475Z,4.20
2018-01-14T14:53:02.583Z,4.20
2018-01-14T14:55:30.268Z,4.10
2018-01-14T14:57:59.377Z,4.10
2018-01-14T15:00:29.744Z,4.10
2018-01-14T15:02:57.616Z,4.00
2018-01-14T15:05:25.046Z,4.00
2018-01-14T15:07:53.350Z,4.00
2018-01-14T15:10:20.787Z,4.00
2018-01-14T15:12:49.481Z,3.90
2018-01-14T15:15:17.705Z,3.90
2018-01-14T15:17:45.671Z,3.90
2018-01-14T15:20:13.547Z,3.80
2018-01-14T15:22:41.899Z,3.80
2018-01-14T15:25:09.604Z,3.70
2018-01-14T15:27:37.217Z,3.70
2018-01-14T15:30:05.796Z,3.60
2018-01-14T15:32:36.840Z,3.60
2018-01-14T15:35:09.153Z,3.60
2018-01-14T15:37:36.610Z,3.60
2018-01-14T15:40:04.068Z,3.60
2018-01-14T15:42:36.278Z,3.50
2018-01-14T15:45:03.753Z,3.50
2018-01-14T15:47:32.224Z,3.50
2018-01-14T15:50:03.320Z,3.40
2018-01-14T15:52:30.728Z,3.30
2018-01-14T15:54:58.191Z,3.20
2018-01-14T15:57:26.623Z,3.00
2018-01-14T15:59:55.257Z,2.80
2018-01-14T16:02:22.684Z,2.60
2018-01-14T16:04:50.130Z,2.40
2018-01-14T16:07:18.340Z,2.20
2018-01-14T16:09:45.781Z,2.20
2018-01-14T16:12:13.645Z,2.10
2018-01-14T16:14:41.106Z,2.00
2018-01-14T16:17:08.536Z,1.90
2018-01-14T16:19:36.765Z,1.70
2018-01-14T16:22:04.753Z,1.60
2018-01-14T16:24:32.210Z,1.60
2018-01-14T16:26:59.795Z,1.40
2018-01-14T16:29:28.016Z,1.00
2018-01-14T16:31:55.463Z,1.00
2018-01-14T16:34:22.898Z,0.80
2018-01-14T16:36:50.334Z,0.70
2018-01-14T16:39:20.077Z,0.60
2018-01-14T16:41:47.522Z,0.40
2018-01-14T16:44:14.963Z,0.30
2018-01-14T16:46:42.424Z,0.10
2018-01-14T16:49:10.178Z,0.00
2018-01-14T16:51:37.632Z,-0.10
2018-01-14T16:54:05.961Z,-0.30
2018-01-14T16:56:39.211Z,-0.30
2018-01-14T16:59:12.661Z,-0.30
2018-01-14T17:01:46.517Z,-0.40
2018-01-14T17:04:17.200Z,-0.40
2018-01-14T17:06:46.569Z,-0.40
2018-01-14T17:09:14.854Z,-0.50
2018-01-14T17:11:42.347Z,-0.50
2018-01-14T17:14:09.865Z,-0.50
2018-01-14T17:16:37.395Z,-0.60
2018-01-14T17:19:04.893Z,-0.60
2018-01-14T17:21:32.623Z,-0.70
2018-01-14T17:24:00.881Z,-0.90
2018-01-14T17:26:29.255Z,-0.90
2018-01-14T17:28:56.708Z,-1.00
2018-01-14T17:31:24.171Z,-1.10
2018-01-14T17:33:51.632Z,-1.20
2018-01-14T17:36:19.102Z,-1.20
2018-01-14T17:38:50.900Z,-1.30
2018-01-14T17:41:18.374Z,-1.40
2018-01-14T17:43:46.611Z,-1.50
2018-01-14T17:46:14.824Z,-1.60
2018-01-14T17:48:42.283Z,-1.60
2018-01-14T17:51:09.789Z,-1.60
2018-01-14T17:53:39.116Z,-1.70
2018-01-14T17:56:10.177Z,-1.90
2018-01-14T17:58:37.623Z,-1.90
2018-01-14T18:01:05.691Z,-2.00
2018-01-14T18:03:33.385Z,-2.10
2018-01-14T18:06:00.851Z,-2.20
2018-01-14T18:08:31.729Z,-2.30
2018-01-14T18:11:00.038Z,-2.40
2018-01-14T18:13:27.469Z,-2.40
2018-01-14T18:15:56.639Z,-2.50
2018-01-14T18:18:24.191Z,-2.50
2018-01-14T18:20:51.704Z,-2.60
2018-01-14T18:23:20.257Z,-2.70
2018-01-14T18:25:48.564Z,-2.70
2018-01-14T18:28:17.392Z,-2.80
2018-01-14T18:30:44.904Z,-2.80
2018-01-14T18:33:12.367Z,-2.80
2018-01-14T18:35:39.904Z,-2.80
2018-01-14T18:38:07.401Z,-2.70
2018-01-14T18:40:34.882Z,-2.60
2018-01-14T18:43:02.358Z,-2.50
2018-01-14T18:45:41.646Z,-2.50
2018-01-14T18:48:09.523Z,-2.60
2018-01-14T18:50:37.072Z,-2.60
2018-01-14T18:53:04.586Z,-2.60
2018-01-14T18:55:32.064Z,-2.50
2018-01-14T18:57:59.964Z,-2.50
2018-01-14T19:00:27.566Z,-2.50
2018-01-14T19:02:55.494Z,-2.40
2018-01-14T19:05:22.972Z,-2.30
2018-01-14T19:07:50.584Z,-2.30
2018-01-14T19:10:18.125Z,-2.30
2018-01-14T19:12:45.764Z,-2.30
2018-01-14T19:15:13.243Z,-2.30
2018-01-14T19:17:41.591Z,-2.30
2018-01-14T19:20:09.135Z,-2.30
2018-01-14T19:25:10.571Z,-2.10
2018-01-14T19:27:38.865Z,-2.00
2018-01-14T19:30:06.919Z,-2.00
2018-01-14T19:32:34.453Z,-1.90
2018-01-14T19:35:01.953Z,-1.80
2018-01-14T19:37:30.293Z,-1.70
2018-01-14T19:39:58.433Z,-1.80
2018-01-14T19:42:25.907Z,-1.60
2018-01-14T19:44:53.421Z,-1.60
2018-01-14T19:47:21.442Z,-1.50
2018-01-14T19:49:49.023Z,-1.50
2018-01-14T19:52:17.253Z,-1.40
2018-01-14T19:54:44.754Z,-1.40
2018-01-14T19:57:13.119Z,-1.50
2018-01-14T19:59:40.688Z,-1.50
2018-01-14T20:02:08.573Z,-1.50
2018-01-14T20:04:36.533Z,-1.50
2018-01-14T20:07:04.784Z,-1.50
2018-01-14T20:09:33.997Z,-1.50
2018-01-14T20:12:07.327Z,-1.50
2018-01-14T20:14:41.243Z,-1.50
2018-01-14T20:17:08.675Z,-1.50
2018-01-14T20:19:36.108Z,-1.40
2018-01-14T20:22:04.308Z,-1.40
2018-01-14T20:24:32.547Z,-1.40
2018-01-14T20:26:59.989Z,-1.50
2018-01-14T20:29:27.422Z,-1.50
2018-01-14T20:31:54.877Z,-1.50
2018-01-14T20:34:22.308Z,-1.50
2018-01-14T20:36:49.846Z,-1.50
2018-01-14T20:39:18.622Z,-1.60
2018-01-14T20:41:56.396Z,-1.60
2018-01-14T20:44:27.686Z,-1.70
2018-01-14T20:46:55.892Z,-1.80
2018-01-14T20:49:23.320Z,-1.80
2018-01-14T20:51:51.528Z,-1.90
2018-01-14T20:54:18.955Z,-1.90
2018-01-14T20:56:47.153Z,-1.90
2018-01-14T20:59:14.589Z,-1.90
2018-01-14T21:01:59.406Z,-2.00
2018-01-14T21:04:30.643Z,-2.10
2018-01-14T21:06:58.099Z,-2.30
2018-01-14T21:09:25.519Z,-2.40
2018-01-14T21:11:52.943Z,-2.50
2018-01-14T21:14:20.379Z,-2.60
2018-01-14T21:16:47.815Z,-2.70
2018-01-14T21:19:15.248Z,-2.80
2018-01-14T21:21:42.681Z,-2.80
2018-01-14T21:24:10.871Z,-2.80
2018-01-14T21:26:40.902Z,-2.90
2018-01-14T21:29:08.339Z,-2.80
2018-01-14T21:31:36.811Z,-2.80
2018-01-14T21:34:04.228Z,-2.80
2018-01-14T21:36:31.662Z,-2.80
2018-01-14T21:38:59.090Z,-2.90
2018-01-14T21:41:29.723Z,-3.00
2018-01-14T21:43:57.706Z,-3.00
2018-01-14T21:46:25.677Z,-3.00
2018-01-14T21:48:53.106Z,-3.00
2018-01-14T21:51:35.958Z,-2.90
2018-01-14T21:54:04.072Z,-2.80
2018-01-14T21:56:31.892Z,-2.90
2018-01-14T21:58:59.323Z,-2.90
2018-01-14T22:01:27.689Z,-3.10
2018-01-14T22:03:55.116Z,-3.10
2018-01-14T22:06:29.540Z,-3.10
2018-01-14T22:08:56.971Z,-3.10
2018-01-14T22:11:24.404Z,-3.00
2018-01-14T22:13:51.943Z,-3.00
2018-01-14T22:16:20.144Z,-2.90
2018-01-14T22:18:47.780Z,-2.90
2018-01-14T22:21:16.030Z,-2.60
2018-01-14T22:23:44.069Z,-2.60
2018-01-14T22:26:11.508Z,-2.60
2018-01-14T22:28:38.937Z,-2.50
2018-01-14T22:31:06.368Z,-2.50
2018-01-14T22:33:33.798Z,-2.40
2018-01-14T22:36:01.240Z,-2.40
2018-01-14T22:38:28.672Z,-2.40
2018-01-14T22:40:57.987Z,-2.60
2018-01-14T22:43:25.960Z,-2.60
2018-01-14T22:45:53.803Z,-2.60
2018-01-14T22:48:22.004Z,-2.70
2018-01-14T22:50:49.863Z,-2.70
2018-01-14T22:53:18.061Z,-2.80
2018-01-14T22:55:45.504Z,-2.80
2018-01-14T22:58:12.926Z,-2.80
2018-01-14T23:00:40.360Z,-2.70
2018-01-14T23:03:08.194Z,-2.60
2018-01-14T23:05:35.631Z,-2.50
2018-01-14T23:08:05.935Z,-2.40
2018-01-14T23:10:33.852Z,-2.40
2018-01-14T23:13:01.839Z,-2.40
2018-01-14T23:15:29.292Z,-2.40
2018-01-14T23:17:56.721Z,-2.40
2018-01-14T23:20:24.153Z,-2.40
2018-01-14T23:22:52.364Z,-2.50
2018-01-14T23:25:19.803Z,-2.60
2018-01-14T23:27:48.059Z,-2.60
2018-01-14T23:30:16.267Z,-2.70
2018-01-14T23:32:44.115Z,-2.70
2018-01-14T23:35:11.555Z,-2.70
2018-01-14T23:37:39.750Z,-2.60
2018-01-14T23:40:07.722Z,-2.70
2018-01-14T23:42:35.556Z,-2.60
2018-01-14T23:45:05.518Z,-2.70
2018-01-14T23:47:33.538Z,-2.70
2018-01-14T23:50:00.964Z,-2.70
2018-01-14T23:52:29.168Z,-2.60
2018-01-14T23:54:58.297Z,-2.60
2018-01-14T23:57:25.737Z,-2.50
2018-01-14T23:59:53.948Z,-2.70
